Elliot Chaparral Reserve, California Weather observations

Data are for 10 minute period ending at time listed.
 Day   Time   Solar   Ave.   Ave.  Ave.  Vector  Max.   Baro.   Total    
  of    of     Rad.   Air    Rel.  Wind   Wind   Wind  Press.  Precip.   
Year   Day            Temp.  Hum.  Speed  Dir.   Gust                    
2016   (PST)  Kw/m2    F      %     mph   deg.    mph    mb.     in.     
-------------------------------------------------------------------------
 206    7:40   0.46   70.5    77    6.3   213     9.4   984.8    0.00 
 206    7:50   0.47   71.0    76    4.5   219     7.5   984.9    0.00 
 206    8:00   0.49   71.9    73    5.1   232     7.9   985.0    0.00 
 206    8:10   0.53   72.3    72    6.4   226     9.8   985.0    0.00 
 206    8:20   0.57   73.1    69    5.6   207     8.6   985.0    0.00 
 206    8:30   0.59   73.7    66    7.7   215    10.8   985.1    0.00 
 206    8:40   0.62   73.7    65    7.1   227    11.9   985.1    0.00 
 206    8:50   0.65   74.8    63    6.3   225    10.3   985.1    0.00 
 206    9:00   0.68   75.5    61    7.6   233    12.1   985.2    0.00 
 206    9:10   0.70   75.7    59    4.8   246     8.7   985.2    0.00 
 206    9:20   0.73   76.7    56    5.8   238     9.7   985.1    0.00 
 206    9:30   0.72   76.8    55    5.9   270    11.0   985.1    0.00 
 206    9:40   0.67   76.9    56    5.6   272     9.6   985.0    0.00 
 206    9:50   0.65   79.1    51    6.0   250    11.2   985.0    0.00 
 206   10:00   0.74   78.5    51    6.6   259    10.6   985.0    0.00 
 206   10:10   0.82   80.2    49    7.4   249    12.3   985.1    0.00 
 206   10:20   0.85   81.2    47    8.0   255    12.2   985.1    0.00 
 206   10:30   0.83   81.2    46    9.2   245    13.3   985.1    0.00 
 206   10:40   0.88   81.2    47   10.1   247    14.2   985.2    0.00 
 206   10:50   0.90   81.7    46    8.0   248    13.7   985.2    0.00 
 206   11:00   0.83   81.6    46    8.6   250    13.5   985.0    0.00 
 206   11:10   0.83   81.6    46    8.4   249    13.2   984.9    0.00 
 206   11:20   0.83   81.9    46    8.7   251    14.1   984.8    0.00 
 206   11:30   0.82   82.5    45    8.1   259    12.8   984.8    0.00 
 206   11:40   0.83   82.4    45    8.2   259    11.8   984.8    0.00 
 206   11:50   0.88   83.3    42    7.3   276    13.4   984.8    0.00 
 206   12:00   0.88   83.4    42    8.1   263    13.3   984.7    0.00 
 206   12:10   0.94   84.1    40    8.5   259    14.1   984.6    0.00 
 206   12:20   0.79   84.3    40    9.3   258    15.9   984.6    0.00 
 206   12:30   0.86   84.7    38   10.2   241    15.8   984.6    0.00 
 206   12:40   0.92   85.0    38    9.0   244    15.8   984.4    0.00 
 206   12:50   0.91   85.3    37    9.7   239    14.5   984.3    0.00 
 206   13:00   0.90   85.7    37    7.3   236    14.2   984.2    0.00 
 206   13:10   0.88   86.1    38    6.1   240    13.8   984.1    0.00 
 206   13:20   0.87   86.8    37    7.7   282    13.4   984.0    0.00 
 206   13:30   0.85   86.6    38   10.7   278    15.2   983.8    0.00 
 206   13:40   0.84   86.6    39    9.8   259    14.3   983.8    0.00 
 206   13:50   0.82   87.8    37    8.5   259    13.0   983.7    0.00 
 206   14:00   0.80   86.6    39   10.1   255    14.3   983.7    0.00 
 206   14:10   0.78   86.4    40    8.6   244    14.2   983.6    0.00 
 206   14:20   0.76   87.2    38    8.7   248    13.7   983.6    0.00 
 206   14:30   0.74   86.7    39    8.8   255    13.2   983.5    0.00 
 206   14:40   0.72   86.9    39    9.1   241    13.3   983.4    0.00 
 206   14:50   0.67   87.8    38    8.5   239    13.1   983.3    0.00 
 206   15:00   0.67   87.0    40   10.5   223    14.8   983.4    0.00 
 206   15:10   0.64   85.8    41   10.4   233    17.8   983.3    0.00 
 206   15:20   0.61   85.8    41    8.7   230    14.0   983.3    0.00 
 206   15:30   0.58   85.9    41    8.8   236    14.0   983.2    0.00 
 206   15:40   0.56   86.3    41    8.0   260    11.0   983.2    0.00 
 206   15:50   0.53   85.9    42    7.9   254    13.6   983.2    0.00 
 206   16:00   0.50   85.2    42    8.1   248    11.4   983.2    0.00 
 206   16:10   0.47   85.4    41    7.8   254    12.1   983.1    0.00 
 206   16:20   0.44   86.4    40    7.2   238    12.1   983.1    0.00 
 206   16:30   0.41   85.8    40    8.2   241    12.6   983.1    0.00 
 206   16:40   0.39   85.4    41    7.9   248    12.4   983.1    0.00 
 206   16:50   0.36   84.3    43    8.7   254    12.4   983.0    0.00 
 206   17:00   0.33   84.7    42    8.3   253    13.5   982.9    0.00 
 206   17:10   0.30   84.6    43    8.0   245    11.9   983.1    0.00 
 206   17:20   0.28   83.7    45    7.9   233    11.5   983.3    0.00 
 206   17:30   0.26   83.0    46    7.6   240    11.5   983.3    0.00 
 206   17:40   0.24   82.8    46    7.8   236    10.7   983.3    0.00 
 206   17:50   0.19   81.7    49    8.5   234    11.2   983.4    0.00 
 206   18:00   0.17   81.5    46   10.6   218    14.6   983.4    0.00 
 206   18:10   0.13   80.7    44    8.9   210    11.6   983.5    0.00 
 206   18:20   0.09   80.1    45    8.8   218    11.3   983.5    0.00 
 206   18:30   0.07   78.9    46    9.9   218    12.9   983.7    0.00 
 206   18:40   0.04   77.8    48    9.1   219    11.5   983.8    0.00 
 206   18:50   0.02   76.8    53    9.0   219    11.2   984.0    0.00 
 206   19:00   0.01   75.7    52    7.8   210    10.2   984.1    0.00 
 206   19:10   0.00   74.9    55    7.6   221    10.1   984.1    0.00 
 206   19:20   0.00   74.0    55    7.0   219     9.2   984.2    0.00 
 206   19:30   0.00   73.5    57    6.3   213     7.8   984.2    0.00 
 206   19:40   0.00   73.2    66    3.8   222     6.0   984.3    0.00 
 206   19:50   0.00   72.5    69    3.1   244     4.0   984.3    0.00 
 206   20:00   0.00   72.3    69    2.7   240     4.3   984.4    0.00 
 206   20:10   0.00   72.1    69    3.5   224     4.4   984.5    0.00 
 206   20:20   0.00   71.9    68    2.1   219     3.9   984.6    0.00 
 206   20:30   0.00   71.9    69    1.7   240     2.7   984.7    0.00 
 206   20:40   0.00   71.7    68    2.2   243     2.8   984.7    0.00 
 206   20:50   0.00   71.5    69    2.5   244     3.3   984.8    0.00 
 206   21:00   0.00   71.4    69    2.5   250     2.9   984.9    0.00 
 206   21:10   0.00   71.2    70    1.5   224     2.6   984.9    0.00 
 206   21:20   0.00   71.2    70    0.6   210     1.5   984.7    0.00 
 206   21:30   0.00   71.1    70    1.2   196     2.6   984.8    0.00 
 206   21:40   0.00   71.0    70    2.2   197     3.0   984.8    0.00 
 206   21:50   0.00   70.8    71    2.8   196     3.4   984.9    0.00 
 206   22:00   0.00   70.5    72    3.7   210     4.4   984.9    0.00 
 206   22:10   0.00   70.3    73    3.5   221     4.2   984.8    0.00 
 206   22:20   0.00   70.2    74    2.1   218     2.8   984.8    0.00 
 206   22:30   0.00   70.2    74    1.4   224     2.3   984.8    0.00 
 206   22:40   0.00   70.2    74    2.3   241     2.9   984.8    0.00 
 206   22:50   0.00   70.0    74    2.0   233     2.6   984.8    0.00 
 206   23:00   0.00   70.0    75    2.3   274     2.9   984.8    0.00 
 206   23:10   0.00   69.8    76    2.7   286     3.4   984.8    0.00 
 206   23:20   0.00   69.5    76    2.6   267     3.3   984.8    0.00 
 206   23:30   0.00   69.4    77    2.9   284     3.5   984.8    0.00 
 206   23:40   0.00   69.2    78    2.1   266     3.0   985.0    0.00 
 206   23:50   0.00   69.0    77    1.3   233     2.2   985.1    0.00 
 207    0:00   0.00   69.1    77    1.5   304     2.6   985.0    0.00 
 207    0:10   0.00   68.9    79    2.1   330     3.0   984.8    0.00 
 207    0:20   0.00   68.9    81    2.8   323     3.6   984.8    0.00 
 207    0:30   0.00   68.9    82    2.2   317     3.2   984.7    0.00 
 207    0:40   0.00   68.8    82    2.1   322     2.8   984.7    0.00 
 207    0:50   0.00   68.9    82    0.7   323     2.2   984.7    0.00 
 207    1:00   0.00   68.5    80    1.8   215     2.3   984.7    0.00 
 207    1:10   0.00   68.5    80    2.5   284     3.2   984.5    0.00 
 207    1:20   0.00   68.3    81    2.5   285     3.4   984.5    0.00 
 207    1:30   0.00   68.2    82    2.9   303     3.4   984.5    0.00 
 207    1:40   0.00   68.2    84    2.4   307     3.4   984.5    0.00 
 207    1:50   0.00   68.0    85    3.6   300     4.5   984.5    0.00 
 207    2:00   0.00   67.7    86    3.1   298     4.5   984.5    0.00 
 207    2:10   0.00   67.5    87    2.9   291     3.5   984.5    0.00 
 207    2:20   0.00   67.3    87    3.1   285     5.0   984.5    0.00 
 207    2:30   0.00   67.1    88    4.3   297     5.1   984.5    0.00 
 207    2:40   0.00   67.0    89    3.6   308     4.4   984.5    0.00 
 207    2:50   0.00   67.0    89    2.9   310     4.5   984.5    0.00 
 207    3:00   0.00   66.9    90    3.2   324     4.3   984.4    0.00 
 207    3:10   0.00   66.8    90    2.6   318     3.9   984.4    0.00 
 207    3:20   0.00   66.7    90    2.5   302     3.0   984.4    0.00 
 207    3:30   0.00   66.7    90    3.2   332     4.3   984.5    0.00 
 207    3:40   0.00   66.8    90    2.8   322     3.9   984.4    0.00 
 207    3:50   0.00   66.8    90    2.5   314     3.7   984.5    0.00 
 207    4:00   0.00   66.7    90    3.3   339     4.7   984.6    0.00 
 207    4:10   0.00   66.6    90    3.1   359     4.2   984.6    0.00 
 207    4:20   0.00   66.5    91    3.6   344     4.7   984.6    0.00 
 207    4:30   0.00   66.5    91    3.6   353     4.9   984.7    0.00 
 207    4:40   0.00   66.6    91    2.6    10     4.3   984.8    0.00 
 207    4:50   0.00   66.6    91    1.8    16     3.7   984.9    0.00 
 207    5:00   0.00   66.7    90    1.0   314     1.8   984.9    0.00 
 207    5:10   0.01   66.8    90    1.6   244     2.3   985.1    0.00 
 207    5:20   0.03   67.0    90    1.9   249     2.7   985.3    0.00 
 207    5:30   0.04   67.2    90    2.6   257     3.7   985.5    0.00 
 207    5:40   0.05   67.4    89    3.4   220     4.7   985.6    0.00 
 207    5:50   0.07   67.8    88    2.4   217     3.7   985.8    0.00 
 207    6:00   0.12   68.7    86    1.6   218     3.7   985.9    0.00 
 207    6:10   0.18   70.9    82    1.4   312     3.9   986.0    0.00 
 207    6:20   0.23   71.7    79    1.7   216     3.7   986.1    0.00 
 207    6:30   0.27   73.4    74    1.2   283     3.1   986.3    0.00 
 207    6:40   0.11   72.5    75    1.3   309     2.7   986.4    0.00 
 207    6:50   0.12   71.8    76    2.0   246     3.8   986.4    0.00 
 207    7:00   0.20   72.0    76    3.4   224     5.0   986.5    0.00 
 207    7:10   0.24   73.3    73    3.2   242     5.2   986.6    0.00 
 207    7:20   0.19   72.8    74    2.5   298     4.8   986.6    0.00 
 207    7:30   0.23   73.8    72    1.1   212     4.5   986.8    0.00 

Return to Elliot Chaparral Reserve graphs page.


Western Regional Climate Center,wrcc@dri.edu